sensor_id;sensor_type;location;lat;lon;timestamp;pressure;altitude;pressure_sealevel;temperature;humidity
70009;BME280;59542;37.950;-122.338;2023-05-12T00:00:57;101458.38;;;20.58;49.34
70009;BME280;59542;37.950;-122.338;2023-05-12T00:03:23;101466.91;;;20.99;50.77
70009;BME280;59542;37.950;-122.338;2023-05-12T00:05:50;101463.13;;;21.05;47.90
70009;BME280;59542;37.950;-122.338;2023-05-12T00:08:17;101467.56;;;21.16;49.29
70009;BME280;59542;37.950;-122.338;2023-05-12T00:10:43;101470.09;;;20.37;50.12
70009;BME280;59542;37.950;-122.338;2023-05-12T00:13:10;101466.94;;;20.72;51.11
70009;BME280;59542;37.950;-122.338;2023-05-12T00:15:36;101469.78;;;20.55;50.07
70009;BME280;59542;37.950;-122.338;2023-05-12T00:18:03;101466.63;;;20.68;50.93
70009;BME280;59542;37.950;-122.338;2023-05-12T00:20:29;101478.59;;;20.45;51.60
70009;BME280;59542;37.950;-122.338;2023-05-12T00:22:56;101471.63;;;20.27;52.45
70009;BME280;59542;37.950;-122.338;2023-05-12T00:25:22;101467.91;;;20.12;53.02
70009;BME280;59542;37.950;-122.338;2023-05-12T00:27:48;101466.00;;;20.12;52.64
70009;BME280;59542;37.950;-122.338;2023-05-12T00:30:14;101471.25;;;20.19;52.60
70009;BME280;59542;37.950;-122.338;2023-05-12T00:32:41;101460.53;;;19.85;52.45
70009;BME280;59542;37.950;-122.338;2023-05-12T00:35:07;101463.78;;;19.65;53.67
70009;BME280;59542;37.950;-122.338;2023-05-12T00:37:34;101461.69;;;19.89;53.62
70009;BME280;59542;37.950;-122.338;2023-05-12T00:40:00;101459.22;;;19.66;53.16
70009;BME280;59542;37.950;-122.338;2023-05-12T00:42:26;101460.19;;;19.82;53.59
70009;BME280;59542;37.950;-122.338;2023-05-12T00:44:52;101469.81;;;19.67;53.01
70009;BME280;59542;37.950;-122.338;2023-05-12T00:47:19;101466.53;;;19.32;53.49
70009;BME280;59542;37.950;-122.338;2023-05-12T00:49:46;101470.59;;;18.95;54.56
70009;BME280;59542;37.950;-122.338;2023-05-12T00:52:12;101473.66;;;18.99;54.71
70009;BME280;59542;37.950;-122.338;2023-05-12T00:54:39;101476.69;;;18.57;56.82
70009;BME280;59542;37.950;-122.338;2023-05-12T00:57:08;101480.47;;;18.56;56.95
70009;BME280;59542;37.950;-122.338;2023-05-12T00:59:35;101480.47;;;18.56;56.95
70009;BME280;59542;37.950;-122.338;2023-05-12T01:02:02;101465.28;;;18.55;57.26
70009;BME280;59542;37.950;-122.338;2023-05-12T01:04:28;101474.72;;;18.53;56.71
70009;BME280;59542;37.950;-122.338;2023-05-12T01:07:27;101469.34;;;18.12;58.07
70009;BME280;59542;37.950;-122.338;2023-05-12T01:09:57;101478.50;;;18.23;57.07
70009;BME280;59542;37.950;-122.338;2023-05-12T01:12:24;101482.38;;;18.27;56.56
70009;BME280;59542;37.950;-122.338;2023-05-12T01:14:52;101490.78;;;18.42;56.83
70009;BME280;59542;37.950;-122.338;2023-05-12T01:17:23;101482.03;;;18.24;57.65
70009;BME280;59542;37.950;-122.338;2023-05-12T01:19:55;101474.78;;;18.41;57.99
70009;BME280;59542;37.950;-122.338;2023-05-12T01:22:23;101474.41;;;18.37;57.44
70009;BME280;59542;37.950;-122.338;2023-05-12T01:24:53;101473.31;;;18.50;57.95
70009;BME280;59542;37.950;-122.338;2023-05-12T01:27:21;101468.81;;;18.56;58.42
70009;BME280;59542;37.950;-122.338;2023-05-12T01:29:49;101475.59;;;18.70;57.88
70009;BME280;59542;37.950;-122.338;2023-05-12T01:32:17;101478.56;;;18.40;58.51
70009;BME280;59542;37.950;-122.338;2023-05-12T01:34:44;101470.03;;;18.19;59.76
70009;BME280;59542;37.950;-122.338;2023-05-12T01:37:11;101469.44;;;18.17;58.81
70009;BME280;59542;37.950;-122.338;2023-05-12T01:39:37;101468.88;;;18.04;58.67
70009;BME280;59542;37.950;-122.338;2023-05-12T01:42:04;101475.38;;;18.03;58.78
70009;BME280;59542;37.950;-122.338;2023-05-12T01:44:30;101469.84;;;17.98;59.29
70009;BME280;59542;37.950;-122.338;2023-05-12T01:46:57;101469.41;;;18.29;58.91
70009;BME280;59542;37.950;-122.338;2023-05-12T01:49:23;101461.91;;;18.19;57.94
70009;BME280;59542;37.950;-122.338;2023-05-12T01:51:49;101465.16;;;18.33;57.94
70009;BME280;59542;37.950;-122.338;2023-05-12T01:54:16;101462.31;;;18.57;57.22
70009;BME280;59542;37.950;-122.338;2023-05-12T01:56:42;101470.03;;;18.19;57.69
70009;BME280;59542;37.950;-122.338;2023-05-12T01:59:08;101466.47;;;18.47;57.67
70009;BME280;59542;37.950;-122.338;2023-05-12T02:01:34;101470.72;;;18.27;58.21
70009;BME280;59542;37.950;-122.338;2023-05-12T02:04:02;101464.34;;;18.33;58.76
70009;BME280;59542;37.950;-122.338;2023-05-12T02:06:29;101469.16;;;18.31;58.01
70009;BME280;59542;37.950;-122.338;2023-05-12T02:08:56;101475.53;;;18.25;58.93
70009;BME280;59542;37.950;-122.338;2023-05-12T02:11:22;101465.94;;;17.77;60.13
70009;BME280;59542;37.950;-122.338;2023-05-12T02:13:49;101468.66;;;18.05;59.68
70009;BME280;59542;37.950;-122.338;2023-05-12T02:16:15;101470.78;;;18.43;58.51
70009;BME280;59542;37.950;-122.338;2023-05-12T02:18:41;101472.34;;;18.85;57.04
70009;BME280;59542;37.950;-122.338;2023-05-12T02:21:08;101470.59;;;18.79;56.87
70009;BME280;59542;37.950;-122.338;2023-05-12T02:23:34;101475.78;;;18.80;56.63
70009;BME280;59542;37.950;-122.338;2023-05-12T02:26:00;101472.81;;;18.98;55.83
70009;BME280;59542;37.950;-122.338;2023-05-12T02:28:27;101468.16;;;18.94;55.56
70009;BME280;59542;37.950;-122.338;2023-05-12T02:30:53;101479.63;;;18.39;57.66
70009;BME280;59542;37.950;-122.338;2023-05-12T02:33:20;101466.06;;;18.10;58.50
70009;BME280;59542;37.950;-122.338;2023-05-12T02:35:48;101466.53;;;18.07;58.30
70009;BME280;59542;37.950;-122.338;2023-05-12T02:38:14;101470.47;;;18.00;59.31
70009;BME280;59542;37.950;-122.338;2023-05-12T02:40:41;101481.34;;;18.16;58.74
70009;BME280;59542;37.950;-122.338;2023-05-12T02:43:07;101478.03;;;17.74;59.42
70009;BME280;59542;37.950;-122.338;2023-05-12T02:45:34;101484.13;;;17.69;59.88
70009;BME280;59542;37.950;-122.338;2023-05-12T02:48:00;101490.59;;;16.98;62.90
70009;BME280;59542;37.950;-122.338;2023-05-12T02:50:27;101489.59;;;16.81;63.69
70009;BME280;59542;37.950;-122.338;2023-05-12T02:52:53;101489.88;;;16.91;63.15
70009;BME280;59542;37.950;-122.338;2023-05-12T02:55:19;101492.94;;;16.64;63.64
70009;BME280;59542;37.950;-122.338;2023-05-12T02:57:45;101482.44;;;16.26;64.70
70009;BME280;59542;37.950;-122.338;2023-05-12T03:00:12;101483.69;;;16.42;65.22
70009;BME280;59542;37.950;-122.338;2023-05-12T03:02:39;101493.38;;;16.01;66.30
70009;BME280;59542;37.950;-122.338;2023-05-12T03:05:06;101478.88;;;16.14;66.40
70009;BME280;59542;37.950;-122.338;2023-05-12T03:07:34;101482.34;;;16.03;66.52
70009;BME280;59542;37.950;-122.338;2023-05-12T03:10:00;101490.75;;;15.95;66.95
70009;BME280;59542;37.950;-122.338;2023-05-12T03:12:27;101489.09;;;15.75;67.79
70009;BME280;59542;37.950;-122.338;2023-05-12T03:14:54;101487.59;;;15.79;67.64
70009;BME280;59542;37.950;-122.338;2023-05-12T03:17:21;101493.91;;;15.48;68.81
70009;BME280;59542;37.950;-122.338;2023-05-12T03:19:47;101485.78;;;15.30;69.60
70009;BME280;59542;37.950;-122.338;2023-05-12T03:22:13;101491.50;;;15.40;69.47
70009;BME280;59542;37.950;-122.338;2023-05-12T03:24:40;101489.97;;;15.26;70.02
70009;BME280;59542;37.950;-122.338;2023-05-12T03:27:06;101483.25;;;15.10;70.42
70009;BME280;59542;37.950;-122.338;2023-05-12T03:29:32;101481.81;;;14.83;71.92
70009;BME280;59542;37.950;-122.338;2023-05-12T03:31:58;101488.59;;;14.92;71.79
70009;BME280;59542;37.950;-122.338;2023-05-12T03:34:25;101480.56;;;14.85;72.30
70009;BME280;59542;37.950;-122.338;2023-05-12T03:36:51;101494.31;;;14.70;72.88
70009;BME280;59542;37.950;-122.338;2023-05-12T03:39:17;101498.84;;;14.76;72.73
70009;BME280;59542;37.950;-122.338;2023-05-12T03:41:43;101493.31;;;14.65;73.02
70009;BME280;59542;37.950;-122.338;2023-05-12T03:44:10;101503.22;;;14.77;72.52
70009;BME280;59542;37.950;-122.338;2023-05-12T03:46:36;101497.66;;;14.72;72.79
70009;BME280;59542;37.950;-122.338;2023-05-12T03:49:03;101495.66;;;14.55;73.73
70009;BME280;59542;37.950;-122.338;2023-05-12T03:51:29;101502.69;;;14.62;73.37
70009;BME280;59542;37.950;-122.338;2023-05-12T03:53:55;101504.72;;;14.67;73.29
70009;BME280;59542;37.950;-122.338;2023-05-12T03:56:22;101503.59;;;14.49;74.31
70009;BME280;59542;37.950;-122.338;2023-05-12T03:58:48;101499.22;;;14.55;73.78
70009;BME280;59542;37.950;-122.338;2023-05-12T04:01:14;101497.41;;;14.36;74.71
70009;BME280;59542;37.950;-122.338;2023-05-12T04:03:40;101503.09;;;14.59;73.97
70009;BME280;59542;37.950;-122.338;2023-05-12T04:06:07;101503.69;;;14.68;73.14
70009;BME280;59542;37.950;-122.338;2023-05-12T04:08:33;101504.16;;;14.58;73.63
70009;BME280;59542;37.950;-122.338;2023-05-12T04:11:00;101495.94;;;14.78;72.82
70009;BME280;59542;37.950;-122.338;2023-05-12T04:13:28;101507.97;;;14.75;73.04
70009;BME280;59542;37.950;-122.338;2023-05-12T04:15:55;101505.31;;;14.69;73.05
70009;BME280;59542;37.950;-122.338;2023-05-12T04:18:22;101514.09;;;14.58;73.25
70009;BME280;59542;37.950;-122.338;2023-05-12T04:20:49;101516.56;;;14.66;72.99
70009;BME280;59542;37.950;-122.338;2023-05-12T04:23:15;101513.31;;;14.50;73.82
70009;BME280;59542;37.950;-122.338;2023-05-12T04:25:41;101510.13;;;14.60;73.87
70009;BME280;59542;37.950;-122.338;2023-05-12T04:28:09;101506.28;;;14.49;73.99
70009;BME280;59542;37.950;-122.338;2023-05-12T04:30:39;101511.91;;;14.35;75.04
70009;BME280;59542;37.950;-122.338;2023-05-12T04:33:05;101513.94;;;14.46;74.63
70009;BME280;59542;37.950;-122.338;2023-05-12T04:35:32;101510.81;;;14.49;74.59
70009;BME280;59542;37.950;-122.338;2023-05-12T04:37:58;101507.94;;;14.50;74.36
70009;BME280;59542;37.950;-122.338;2023-05-12T04:40:26;101509.56;;;14.51;74.51
70009;BME280;59542;37.950;-122.338;2023-05-12T04:42:53;101506.50;;;14.41;74.84
70009;BME280;59542;37.950;-122.338;2023-05-12T04:45:19;101506.06;;;14.51;74.61
70009;BME280;59542;37.950;-122.338;2023-05-12T04:47:45;101506.28;;;14.49;74.48
70009;BME280;59542;37.950;-122.338;2023-05-12T04:50:12;101501.31;;;14.40;74.69
70009;BME280;59542;37.950;-122.338;2023-05-12T04:52:38;101499.88;;;14.37;74.20
70009;BME280;59542;37.950;-122.338;2023-05-12T04:55:05;101502.81;;;14.29;73.96
70009;BME280;59542;37.950;-122.338;2023-05-12T04:57:32;101496.63;;;14.29;73.79
70009;BME280;59542;37.950;-122.338;2023-05-12T04:59:58;101505.97;;;14.19;73.71
70009;BME280;59542;37.950;-122.338;2023-05-12T05:02:26;101500.81;;;14.18;73.71
70009;BME280;59542;37.950;-122.338;2023-05-12T05:04:52;101495.78;;;14.28;72.91
70009;BME280;59542;37.950;-122.338;2023-05-12T05:07:19;101498.38;;;14.03;73.58
70009;BME280;59542;37.950;-122.338;2023-05-12T05:09:45;101501.88;;;14.10;73.51
70009;BME280;59542;37.950;-122.338;2023-05-12T05:12:11;101501.34;;;13.88;74.32
70009;BME280;59542;37.950;-122.338;2023-05-12T05:14:37;101510.22;;;13.95;74.04
70009;BME280;59542;37.950;-122.338;2023-05-12T05:17:04;101514.16;;;13.86;74.36
70009;BME280;59542;37.950;-122.338;2023-05-12T05:19:32;101509.59;;;13.87;74.30
70009;BME280;59542;37.950;-122.338;2023-05-12T05:21:58;101506.97;;;13.67;74.71
70009;BME280;59542;37.950;-122.338;2023-05-12T05:24:25;101515.25;;;13.52;75.08
70009;BME280;59542;37.950;-122.338;2023-05-12T05:26:51;101511.53;;;13.53;75.51
70009;BME280;59542;37.950;-122.338;2023-05-12T05:29:17;101519.00;;;13.51;75.43
70009;BME280;59542;37.950;-122.338;2023-05-12T05:31:43;101514.44;;;13.52;75.63
70009;BME280;59542;37.950;-122.338;2023-05-12T05:34:10;101519.81;;;13.52;75.46
70009;BME280;59542;37.950;-122.338;2023-05-12T05:36:36;101517.94;;;13.19;76.82
70009;BME280;59542;37.950;-122.338;2023-05-12T05:39:02;101517.72;;;13.20;76.68
70009;BME280;59542;37.950;-122.338;2023-05-12T05:41:29;101514.81;;;13.02;77.68
70009;BME280;59542;37.950;-122.338;2023-05-12T05:43:55;101513.00;;;13.23;76.91
70009;BME280;59542;37.950;-122.338;2023-05-12T05:46:22;101523.16;;;13.34;76.70
70009;BME280;59542;37.950;-122.338;2023-05-12T05:48:48;101511.75;;;13.25;77.44
70009;BME280;59542;37.950;-122.338;2023-05-12T05:51:14;101509.72;;;13.27;77.75
70009;BME280;59542;37.950;-122.338;2023-05-12T05:53:41;101508.84;;;13.07;78.37
70009;BME280;59542;37.950;-122.338;2023-05-12T05:56:07;101512.56;;;13.06;78.82
70009;BME280;59542;37.950;-122.338;2023-05-12T05:58:33;101513.84;;;13.23;78.43
70009;BME280;59542;37.950;-122.338;2023-05-12T06:01:02;101502.22;;;13.16;79.16
70009;BME280;59542;37.950;-122.338;2023-05-12T06:03:29;101513.00;;;13.16;79.29
70009;BME280;59542;37.950;-122.338;2023-05-12T06:05:55;101503.69;;;13.05;79.74
70009;BME280;59542;37.950;-122.338;2023-05-12T06:08:21;101502.22;;;13.16;79.06
70009;BME280;59542;37.950;-122.338;2023-05-12T06:10:48;101499.75;;;13.21;78.83
70009;BME280;59542;37.950;-122.338;2023-05-12T06:13:14;101496.63;;;12.98;79.58
70009;BME280;59542;37.950;-122.338;2023-05-12T06:15:40;101492.28;;;12.97;79.83
70009;BME280;59542;37.950;-122.338;2023-05-12T06:18:06;101493.94;;;12.98;79.85
70009;BME280;59542;37.950;-122.338;2023-05-12T06:20:33;101496.63;;;12.84;79.98
70009;BME280;59542;37.950;-122.338;2023-05-12T06:22:59;101488.78;;;12.89;79.91
70009;BME280;59542;37.950;-122.338;2023-05-12T06:25:25;101495.59;;;12.85;80.35
70009;BME280;59542;37.950;-122.338;2023-05-12T06:27:52;101490.22;;;12.72;81.10
70009;BME280;59542;37.950;-122.338;2023-05-12T06:30:18;101488.13;;;12.81;80.52
70009;BME280;59542;37.950;-122.338;2023-05-12T06:32:45;101498.06;;;12.74;80.71
70009;BME280;59542;37.950;-122.338;2023-05-12T06:35:11;101495.38;;;12.67;81.02
70009;BME280;59542;37.950;-122.338;2023-05-12T06:37:37;101495.97;;;12.76;80.95
70009;BME280;59542;37.950;-122.338;2023-05-12T06:40:04;101506.47;;;12.51;81.85
70009;BME280;59542;37.950;-122.338;2023-05-12T06:42:30;101497.59;;;12.57;81.36
70009;BME280;59542;37.950;-122.338;2023-05-12T06:44:57;101502.78;;;12.58;81.09
70009;BME280;59542;37.950;-122.338;2023-05-12T06:47:25;101497.16;;;12.47;81.66
70009;BME280;59542;37.950;-122.338;2023-05-12T06:49:51;101498.78;;;12.34;82.58
70009;BME280;59542;37.950;-122.338;2023-05-12T06:52:18;101507.25;;;12.38;82.42
70009;BME280;59542;37.950;-122.338;2023-05-12T06:54:45;101497.78;;;12.49;81.57
70009;BME280;59542;37.950;-122.338;2023-05-12T06:57:11;101500.28;;;12.50;81.28
70009;BME280;59542;37.950;-122.338;2023-05-12T06:59:37;101498.41;;;12.44;81.49
70009;BME280;59542;37.950;-122.338;2023-05-12T07:02:04;101504.19;;;12.48;81.92
70009;BME280;59542;37.950;-122.338;2023-05-12T07:04:30;101510.19;;;12.50;81.69
70009;BME280;59542;37.950;-122.338;2023-05-12T07:06:56;101509.97;;;12.45;81.75
70009;BME280;59542;37.950;-122.338;2023-05-12T07:09:23;101507.88;;;12.33;82.04
70009;BME280;59542;37.950;-122.338;2023-05-12T07:11:49;101504.16;;;12.34;81.82
70009;BME280;59542;37.950;-122.338;2023-05-12T07:14:15;101509.75;;;12.39;81.81
70009;BME280;59542;37.950;-122.338;2023-05-12T07:16:42;101514.66;;;12.29;82.23
70009;BME280;59542;37.950;-122.338;2023-05-12T07:19:09;101516.97;;;12.39;82.16
70009;BME280;59542;37.950;-122.338;2023-05-12T07:21:35;101514.31;;;12.46;81.58
70009;BME280;59542;37.950;-122.338;2023-05-12T07:24:02;101514.47;;;12.37;81.85
70009;BME280;59542;37.950;-122.338;2023-05-12T07:26:30;101519.44;;;12.40;81.74
70009;BME280;59542;37.950;-122.338;2023-05-12T07:28:57;101521.69;;;12.30;82.35
70009;BME280;59542;37.950;-122.338;2023-05-12T07:31:25;101519.75;;;12.11;83.43
70009;BME280;59542;37.950;-122.338;2023-05-12T07:33:51;101519.81;;;12.31;82.45
70009;BME280;59542;37.950;-122.338;2023-05-12T07:36:17;101520.91;;;11.95;84.09
70009;BME280;59542;37.950;-122.338;2023-05-12T07:38:43;101520.75;;;12.10;83.60
70009;BME280;59542;37.950;-122.338;2023-05-12T07:41:10;101514.75;;;12.01;83.73
70009;BME280;59542;37.950;-122.338;2023-05-12T07:43:36;101513.16;;;12.20;83.14
70009;BME280;59542;37.950;-122.338;2023-05-12T07:46:02;101509.66;;;12.20;83.01
70009;BME280;59542;37.950;-122.338;2023-05-12T07:48:29;101518.16;;;12.30;82.37
70009;BME280;59542;37.950;-122.338;2023-05-12T07:50:55;101513.59;;;12.17;82.64
70009;BME280;59542;37.950;-122.338;2023-05-12T07:53:22;101511.00;;;11.96;83.53
70009;BME280;59542;37.950;-122.338;2023-05-12T07:55:48;101508.28;;;11.89;84.12
70009;BME280;59542;37.950;-122.338;2023-05-12T07:58:14;101513.69;;;11.96;83.72
70009;BME280;59542;37.950;-122.338;2023-05-12T08:00:40;101519.09;;;12.02;83.86
70009;BME280;59542;37.950;-122.338;2023-05-12T08:03:07;101513.13;;;12.07;83.53
70009;BME280;59542;37.950;-122.338;2023-05-12T08:05:33;101516.19;;;12.04;83.73
70009;BME280;59542;37.950;-122.338;2023-05-12T08:07:59;101516.50;;;12.22;82.77
70009;BME280;59542;37.950;-122.338;2023-05-12T08:10:25;101517.06;;;12.11;83.21
70009;BME280;59542;37.950;-122.338;2023-05-12T08:12:54;101511.06;;;12.09;83.60
70009;BME280;59542;37.950;-122.338;2023-05-12T08:15:21;101521.78;;;12.09;83.62
70009;BME280;59542;37.950;-122.338;2023-05-12T08:17:47;101522.63;;;12.09;83.08
70009;BME280;59542;37.950;-122.338;2023-05-12T08:20:13;101515.78;;;12.00;83.76
70009;BME280;59542;37.950;-122.338;2023-05-12T08:22:40;101514.75;;;12.01;83.67
70009;BME280;59542;37.950;-122.338;2023-05-12T08:25:07;101520.72;;;12.03;83.49
70009;BME280;59542;37.950;-122.338;2023-05-12T08:27:33;101518.50;;;12.07;83.32
70009;BME280;59542;37.950;-122.338;2023-05-12T08:29:59;101518.28;;;12.08;83.44
70009;BME280;59542;37.950;-122.338;2023-05-12T08:32:26;101511.53;;;12.19;83.31
70009;BME280;59542;37.950;-122.338;2023-05-12T08:34:52;101513.97;;;12.14;83.59
70009;BME280;59542;37.950;-122.338;2023-05-12T08:37:19;101507.56;;;12.15;83.44
70009;BME280;59542;37.950;-122.338;2023-05-12T08:39:45;101511.06;;;12.09;83.50
70009;BME280;59542;37.950;-122.338;2023-05-12T08:44:44;101506.72;;;12.08;83.57
70009;BME280;59542;37.950;-122.338;2023-05-12T08:47:11;101499.00;;;11.92;84.33
70009;BME280;59542;37.950;-122.338;2023-05-12T08:49:39;101509.75;;;11.92;84.33
70009;BME280;59542;37.950;-122.338;2023-05-12T08:52:07;101508.59;;;12.07;83.22
70009;BME280;59542;37.950;-122.338;2023-05-12T08:54:35;101505.53;;;12.17;82.89
70009;BME280;59542;37.950;-122.338;2023-05-12T08:57:03;101501.59;;;12.13;82.82
70009;BME280;59542;37.950;-122.338;2023-05-12T08:59:30;101510.78;;;11.91;83.88
70009;BME280;59542;37.950;-122.338;2023-05-12T09:01:57;101510.66;;;12.12;83.27
70009;BME280;59542;37.950;-122.338;2023-05-12T09:04:24;101509.63;;;12.13;83.05
70009;BME280;59542;37.950;-122.338;2023-05-12T09:06:51;101501.97;;;12.10;83.46
70009;BME280;59542;37.950;-122.338;2023-05-12T09:09:18;101504.84;;;12.02;84.00
70009;BME280;59542;37.950;-122.338;2023-05-12T09:11:46;101502.03;;;12.23;83.06
70009;BME280;59542;37.950;-122.338;2023-05-12T09:14:17;101506.75;;;12.21;82.93
70009;BME280;59542;37.950;-122.338;2023-05-12T09:16:49;101500.34;;;12.15;82.89
70009;BME280;59542;37.950;-122.338;2023-05-12T09:19:19;101501.53;;;12.00;84.19
70009;BME280;59542;37.950;-122.338;2023-05-12T09:21:46;101503.44;;;12.06;83.67
70009;BME280;59542;37.950;-122.338;2023-05-12T09:24:13;101499.28;;;12.10;83.45
70009;BME280;59542;37.950;-122.338;2023-05-12T09:26:49;101503.75;;;11.89;84.26
70009;BME280;59542;37.950;-122.338;2023-05-12T09:29:16;101496.91;;;11.87;84.58
70009;BME280;59542;37.950;-122.338;2023-05-12T09:31:53;101502.22;;;11.80;85.19
70009;BME280;59542;37.950;-122.338;2023-05-12T09:34:31;101498.47;;;11.75;85.96
70009;BME280;59542;37.950;-122.338;2023-05-12T09:36:59;101504.06;;;11.80;85.64
70009;BME280;59542;37.950;-122.338;2023-05-12T09:39:26;101495.69;;;11.83;85.11
70009;BME280;59542;37.950;-122.338;2023-05-12T09:41:53;101498.09;;;11.78;85.18
70009;BME280;59542;37.950;-122.338;2023-05-12T09:44:20;101490.72;;;11.86;85.12
70009;BME280;59542;37.950;-122.338;2023-05-12T09:46:48;101496.94;;;11.94;84.78
70009;BME280;59542;37.950;-122.338;2023-05-12T09:49:19;101494.09;;;11.95;84.63
70009;BME280;59542;37.950;-122.338;2023-05-12T09:51:45;101491.75;;;11.85;84.67
70009;BME280;59542;37.950;-122.338;2023-05-12T09:54:12;101490.75;;;11.93;84.54
70009;BME280;59542;37.950;-122.338;2023-05-12T09:56:39;101492.19;;;11.89;84.44
70009;BME280;59542;37.950;-122.338;2023-05-12T09:59:08;101498.53;;;11.81;84.62
70009;BME280;59542;37.950;-122.338;2023-05-12T10:01:37;101486.38;;;11.85;84.44
70009;BME280;59542;37.950;-122.338;2023-05-12T10:04:04;101489.63;;;11.81;84.88
70009;BME280;59542;37.950;-122.338;2023-05-12T10:06:40;101492.88;;;11.70;85.46
70009;BME280;59542;37.950;-122.338;2023-05-12T10:09:15;101488.63;;;11.82;85.27
70009;BME280;59542;37.950;-122.338;2023-05-12T10:11:46;101481.75;;;11.73;86.21
70009;BME280;59542;37.950;-122.338;2023-05-12T10:14:13;101483.56;;;11.66;86.66
70009;BME280;59542;37.950;-122.338;2023-05-12T10:16:46;101480.09;;;11.72;86.46
70009;BME280;59542;37.950;-122.338;2023-05-12T10:19:14;101483.94;;;11.91;85.60
70009;BME280;59542;37.950;-122.338;2023-05-12T10:21:42;101490.56;;;11.95;85.25
70009;BME280;59542;37.950;-122.338;2023-05-12T10:24:15;101485.56;;;11.85;85.17
70009;BME280;59542;37.950;-122.338;2023-05-12T10:26:44;101490.34;;;11.89;84.96
70009;BME280;59542;37.950;-122.338;2023-05-12T10:29:11;101494.22;;;11.87;84.76
70009;BME280;59542;37.950;-122.338;2023-05-12T10:31:38;101492.00;;;11.91;84.34
70009;BME280;59542;37.950;-122.338;2023-05-12T10:34:04;101491.75;;;11.85;84.45
70009;BME280;59542;37.950;-122.338;2023-05-12T10:36:42;101493.16;;;11.81;84.63
70009;BME280;59542;37.950;-122.338;2023-05-12T10:39:08;101488.63;;;11.82;84.44
70009;BME280;59542;37.950;-122.338;2023-05-12T10:41:37;101480.31;;;11.77;84.87
70009;BME280;59542;37.950;-122.338;2023-05-12T10:44:04;101482.81;;;11.78;84.39
70009;BME280;59542;37.950;-122.338;2023-05-12T10:46:30;101478.50;;;11.77;84.67
70009;BME280;59542;37.950;-122.338;2023-05-12T10:49:02;101471.28;;;11.78;85.00
70009;BME280;59542;37.950;-122.338;2023-05-12T10:51:47;101470.16;;;11.66;85.37
70009;BME280;59542;37.950;-122.338;2023-05-12T10:54:24;101474.44;;;11.60;85.41
70009;BME280;59542;37.950;-122.338;2023-05-12T10:56:51;101479.19;;;11.58;85.94
70009;BME280;59542;37.950;-122.338;2023-05-12T10:59:20;101477.28;;;11.52;86.68
70009;BME280;59542;37.950;-122.338;2023-05-12T11:02:04;101481.25;;;11.56;86.77
70009;BME280;59542;37.950;-122.338;2023-05-12T11:04:49;101474.50;;;11.67;86.37
70009;BME280;59542;37.950;-122.338;2023-05-12T11:07:20;101476.13;;;11.61;86.41
70009;BME280;59542;37.950;-122.338;2023-05-12T11:09:47;101483.28;;;11.54;86.54
70009;BME280;59542;37.950;-122.338;2023-05-12T11:12:14;101481.88;;;11.58;86.19
70009;BME280;59542;37.950;-122.338;2023-05-12T11:14:42;101494.66;;;11.56;86.03
70009;BME280;59542;37.950;-122.338;2023-05-12T11:17:09;101495.72;;;11.61;86.07
70009;BME280;59542;37.950;-122.338;2023-05-12T11:19:36;101503.56;;;11.63;85.49
70009;BME280;59542;37.950;-122.338;2023-05-12T11:22:07;101494.28;;;11.66;85.28
70009;BME280;59542;37.950;-122.338;2023-05-12T11:24:38;101490.16;;;11.63;85.45
70009;BME280;59542;37.950;-122.338;2023-05-12T11:27:06;101486.03;;;11.60;85.60
70009;BME280;59542;37.950;-122.338;2023-05-12T11:29:33;101493.38;;;11.52;85.70
70009;BME280;59542;37.950;-122.338;2023-05-12T11:31:59;101497.13;;;11.57;85.35
70009;BME280;59542;37.950;-122.338;2023-05-12T11:34:26;101497.47;;;11.48;85.77
70009;BME280;59542;37.950;-122.338;2023-05-12T11:36:54;101492.69;;;11.43;85.98
70009;BME280;59542;37.950;-122.338;2023-05-12T11:39:23;101491.53;;;11.52;85.63
70009;BME280;59542;37.950;-122.338;2023-05-12T11:41:50;101493.94;;;11.41;86.13
70009;BME280;59542;37.950;-122.338;2023-05-12T11:44:19;101490.63;;;11.39;85.96
70009;BME280;59542;37.950;-122.338;2023-05-12T11:47:11;101490.78;;;11.37;86.14
70009;BME280;59542;37.950;-122.338;2023-05-12T11:52:11;101506.91;;;11.16;87.50
70009;BME280;59542;37.950;-122.338;2023-05-12T11:54:37;101503.91;;;11.25;87.08
70009;BME280;59542;37.950;-122.338;2023-05-12T11:57:04;101498.53;;;11.25;86.80
70009;BME280;59542;37.950;-122.338;2023-05-12T11:59:32;101499.56;;;11.24;86.55
70009;BME280;59542;37.950;-122.338;2023-05-12T12:02:01;101505.50;;;11.20;86.62
70009;BME280;59542;37.950;-122.338;2023-05-12T12:04:38;101510.88;;;11.20;86.50
70009;BME280;59542;37.950;-122.338;2023-05-12T12:07:06;101513.53;;;11.20;86.88
70009;BME280;59542;37.950;-122.338;2023-05-12T12:09:37;101509.50;;;11.30;86.30
70009;BME280;59542;37.950;-122.338;2023-05-12T12:12:07;101510.81;;;11.13;87.28
70009;BME280;59542;37.950;-122.338;2023-05-12T12:14:34;101500.16;;;11.20;87.47
70009;BME280;59542;37.950;-122.338;2023-05-12T12:17:03;101506.47;;;11.33;87.15
70009;BME280;59542;37.950;-122.338;2023-05-12T12:19:30;101500.34;;;11.46;86.52
70009;BME280;59542;37.950;-122.338;2023-05-12T12:21:56;101506.91;;;11.44;86.16
70009;BME280;59542;37.950;-122.338;2023-05-12T12:24:24;101501.19;;;11.47;85.97
70009;BME280;59542;37.950;-122.338;2023-05-12T12:26:50;101504.06;;;11.45;85.86